AirNav   Pilot Hours Calculator
 
 1018 users online  

PN26 St Clair Hospital Heliport
Pittsburgh, Pennsylvania, USA

GOING TO PITTSBURGH?


FAA INFORMATION EFFECTIVE 05 DECEMBER 2019

Location

FAA Identifier: PN26
Lat/Long: 40-22-42.3300N 080-03-55.3100W
40-22.705500N 080-03.921833W
40.3784250,-80.0653639
(estimated)
Elevation: 1150 ft. / 351 m (estimated)
Variation: 08W (1990)
From city: 8 miles N of PITTSBURGH, PA
Time zone: UTC -5 (UTC -4 during Daylight Saving Time)
Zip code: 15243

Heliport Operations

Heliport use: Private use, MEDICAL USE.
Activation date: 03/1994
Control tower: no
ARTCC: CLEVELAND CENTER
FSS: ALTOONA FLIGHT SERVICE STATION
Attendance: CONTINUOUS
Wind indicator: lighted
Segmented circle: no
Lights: FOR PERIMETER LGTS CALL 412-942-2300.

Heliport Communications

WX AWOS-A at 42PN (5 nm NE): PHONE 412-442-2213
WX ASOS at AGC (6 nm E): PHONE 412-466-8968
WX ASOS at PIT (10 nm NW): PHONE 412-472-0145
WX AWOS-3 at FWQ (15 nm SE): 118.475 (724-379-5815)
WX AWOS-3PT at AFJ (18 nm SW): 119.175 (724-228-3529)

Nearby radio navigation aids

VOR radial/distance  VOR name  Freq  Var
AGCr358/6.1ALLEGHENY VOR/DME110.0009W
HLGr080/24.1WHEELING VOR/DME112.2007W
EWCr174/27.6ELLWOOD CITY VOR/DME115.8008W

Heliport Services

Runway Information

Helipad H1

Dimensions: 65 x 65 ft. / 20 x 20 m
Surface: concrete
Runway edge lights: PERI
Latitude: 40-22.705500N
Longitude: 080-03.921833W
Elevation: 1150.0 ft.
Traffic pattern: leftleft

Heliport Ownership and Management from official FAA records

Ownership: Privately-owned
Owner: ST CLAIR MEMORIAL HOSPITAL
1000 BOWER HILL ROAD
PITTSBURGH, PA 15243
Phone (412) 942-2300
Manager: STEPHEN A. NOVICKI
1000 BOWER HILL ROAD
PITTSBURGH, PA 15243
Phone 412-942-2300
412-942-2775.

Additional Remarks

A52-H1 HAS 51 FT TREES 226 FT SSW; 23 FT POLE 49 FT S; 25 FT TREES 77 FT NW; & 21 FT POLE 43 FT N.
FOR CD CTC PITTSBURGH APCH AT 412-472-5591

Instrument Procedures

There are no published instrument procedures at PN26.

Some nearby airports with instrument procedures:

KAGC - Allegheny County Airport (6 nm E)
G05 - Finleyville Airpark (8 nm S)
KPIT - Pittsburgh International Airport (10 nm NW)
KFWQ - Rostraver Airport (15 nm SE)
KAFJ - Washington County Airport (18 nm SW)
 
Loc | Ops | Rwys | IFR | FBO | Links
Com | Nav | Svcs | Stats | Notes
Area around PN26 (St Clair Hospital Heliport)
 
Road maps at: MapQuest Bing Google
 
Aerial photo
No photo
 
Sectional chart

 
Airport distance calculator
Flying to St Clair Hospital Heliport? Find the distance to fly.

From to PN26

Sunrise and sunset
Times for 07-Dec-2019
 Local
(UTC-5)
 Zulu
(UTC)
Morning civil twilight07:0012:00
Sunrise07:3112:31
Sunset16:5321:53
Evening civil twilight17:2322:23

Current date and time
Zulu (UTC)  08-Dec-2019 03:05:01
Local (UTC-5)  07-Dec-2019 22:05:01
 
METAR
KAGC 
7nm E 
080253Z 12005KT 10SM CLR M01/M07 A3037 RMK AO2 SLP303 T10111072 57006
KPIT 
12nm NW 
080251Z 00000KT 10SM SCT250 M02/M07 A3037 RMK AO2 SLP306 T10221067 56006
KP53 
15nm SE 
080256Z AUTO 18013G25KT 02/M02 A2990 RMK AO1 PK WND 20027/0212 PRESFR SLP134 T00171022 58032
KAFJ 
18nm SW 
080256Z AUTO 00000KT 10SM CLR M04/M06 A3040 RMK AO2 SLP306 T10441061 58007 PWINO FZRANO $
TAF
KAGC 
7nm E 
071727Z 0718/0818 VRB02KT P6SM SCT250 FM080000 14004KT P6SM SCT250
KPIT 
12nm NW 
072056Z 0721/0824 VRB03KT P6SM SKC FM081400 14004KT P6SM SCT020 FM081800 19007KT P6SM BKN025
NOTAMs
Click for the latest NOTAMs
NOTAMs are issued by the DoD/FAA and will open in a separate window not controlled by AirNav.

 

 
 

Would you like to see your business listed on this page?

 If your business provides an interesting product or service to pilots, flight crews, aircraft, or users of the St Clair Hospital Heliport, you should consider listing it here.  To start the listing process, click on the button below
 
Add a business
 

Other Pages about St Clair Hospital Heliport

Update a link
 
Copyright © AirNav, LLC. All rights reserved. Privacy Policy  Contact